Nearby METAR Reports

 

PAEN - Kenai, Alaska, USA
Distance from station: ESE 2mi, 4km
Updated: Fri, 05-Mar-2021 4:53am AKST
Mostly cloudy
Mostly cloudy
 Wind from N
Wind: N 6 mph , 9 km/h
Temperature: 19°F , -7°C
Wind Chill: 11°F , -12°C
Dew Point: 16°F , -9°C
Humidity: 86%
Barometer: 29.51 inHg , 999.3 hPa
Clouds: Mostly cloudy
Visibility: 10 miles , 16 km
Cloud details: Partly cloudy 6500 ft
Mostly cloudy 11000 ft
2021/03/05 13:53 PAEN 051353Z AUTO 36005KT 10SM SCT065 BKN110 M07/M09 A2951 RMK AO2 SLP996 T10721089 TSNO
PASX - Soldotna, Alaska, USA
Distance from station: SE 12mi, 19km
Updated: Fri, 05-Mar-2021 4:56am AKST
Light snow, Mist, Mostly cloudy
Light snow, Mist, Mostly cloudy
 Wind from E
Wind: E 3 mph , 6 km/h
Temperature: 18°F , -8°C
Dew Point: 16°F , -9°C
Humidity: 93%
Barometer: 29.52 inHg , 999.7 hPa
Summary: Light snow, Mist
Clouds: Mostly cloudy
Visibility: 4 miles , 6 km
Cloud details: Mostly cloudy 4000 ft
Mostly cloudy 5500 ft
2021/03/05 13:56 PASX 051356Z AUTO 09003KT 4SM -SN BR BKN040 BKN055 M08/M09 A2952 RMK AO2 SLP007 P0000 T10781094 FZRANO
 
PANC - Anchorage Intl, Alaska, USA
Distance from station: NE 59mi, 96km
Updated: Fri, 05-Mar-2021 4:53am AKST
Overcast
Overcast
 Wind from N
Wind: N 7 mph , 11 km/h
Temperature: 19°F , -7°C
Wind Chill: 10°F , -12°C
Dew Point: 9°F , -13°C
Humidity: 63%
Barometer: 29.51 inHg , 999.3 hPa
Clouds: Overcast
Visibility: 10 miles , 16 km
Cloud details: Mostly cloudy 6000 ft
Overcast 7500 ft
2021/03/05 13:53 PANC 051353Z 01006KT 10SM BKN060 OVC075 M07/M13 A2951 RMK AO2 SLP995 T10671133
PALH - Anchorage/Lake H, Alaska, USA
Distance from station: NE 61mi, 99km
Updated: Fri, 05-Mar-2021 4:53am AKST
Overcast
Overcast
 Wind from N
Wind: N 6 mph , 9 km/h
Temperature: 18°F , -8°C
Wind Chill: 10°F , -12°C
Dew Point: 10°F , -12°C
Humidity: 73%
Barometer: 29.52 inHg , 999.7 hPa
Clouds: Overcast
Visibility: 10 miles , 16 km
Cloud details: Overcast 7000 ft
2021/03/05 13:53 PALH 051353Z 01005KT 10SM OVC070 M08/M12 A2952 RMK AO2 SLP997 T10781117
 
PAHO - Homer, Alaska, USA
Distance from station: S 66mi, 106km
Updated: Fri, 05-Mar-2021 4:53am AKST
Clear
Clear
 Wind from calm
Wind: Calm
Temperature: 28°F , -2°C
Dew Point: 25°F , -4°C
Humidity: 86%
Barometer: 29.46 inHg , 997.6 hPa
Clouds: Clear
Visibility: 10 miles , 16 km
2021/03/05 13:53 PAHO 051353Z AUTO 00000KT 10SM CLR M02/M04 A2946 RMK AO2 SLP978 T10171039 TSNO
PAMR - Anchorage/Merril, Alaska, USA
Distance from station: NE 66mi, 106km
Updated: Fri, 05-Mar-2021 4:53am AKST
Overcast
Overcast
 Wind from NNE
Wind: NNE 3 mph , 6 km/h
Temperature: 19°F , -7°C
Dew Point: 9°F , -13°C
Humidity: 63%
Barometer: 29.51 inHg , 999.3 hPa
Clouds: Overcast
Visibility: 10 miles , 16 km
Cloud details: Mostly cloudy 7000 ft
Overcast 9000 ft
2021/03/05 13:53 PAMR 051353Z 02003KT 10SM BKN070 OVC090 M07/M13 A2951 RMK AO2 SLP995 T10721128
 
PAED - Elmendorf Afb, Alaska, USA
Distance from station: NE 69mi, 110km
Updated: Fri, 05-Mar-2021 4:56am AKST
Overcast
Overcast
 Wind from N
Wind: N 5 mph , 7 km/h
Temperature: 19°F , -7°C
Wind Chill: 12°F , -11°C
Dew Point: 10°F , -12°C
Humidity: 68%
Barometer: 29.50 inHg , 999 hPa
Clouds: Overcast
Visibility: 10 miles , 16 km
Cloud details: Mostly cloudy 6500 ft
Overcast 7000 ft
2021/03/05 13:56 PAED 051356Z 36004KT 10SM BKN065 OVC070 M07/M12 A2950 RMK AO2A SLP988 T10741123 $
PAWD - Seward, Alaska, USA
Distance from station: ESE 71mi, 115km
Updated: Fri, 05-Mar-2021 4:53am AKST
Overcast
Overcast
 Wind from NW
Wind: NW 5 mph , 7 km/h
Temperature: 30°F , -1°C
Wind Chill: 25°F , -4°C
Dew Point: 27°F , -3°C
Humidity: 86%
Barometer: 29.49 inHg , 998.6 hPa
Clouds: Overcast
Visibility: 10 miles , 16 km
Cloud details: Partly cloudy 4000 ft
Mostly cloudy 4700 ft
Overcast 6000 ft
2021/03/05 13:53 PAWD 051353Z AUTO 32004KT 10SM SCT040 BKN047 OVC060 M01/M03 A2949 RMK AO2 SNB1255E29 SLP987 P0000 T10061033 TSNO
 
PASC - Deadhorse, Alaska, USA
Distance from station: ENE 670mi, 1078km
Updated: Fri, 05-Mar-2021 4:53am AKST
Clear
Clear
 Wind from ENE
Wind: ENE 13 mph , 20 km/h
Temperature: -27°F , -33°C
Wind Chill: -52°F , -47°C
Dew Point: -33°F , -36°C
Humidity: 74%
Barometer: 29.48 inHg , 998.3 hPa
Clouds: Clear
Visibility: 10 miles , 16 km
2021/03/05 13:53 PASC 051353Z 07011KT 10SM CLR M33/M36 A2948 RMK AO2 SLP986 T13281361
PAAD - Point Thomson, Alaska, USA
Distance from station: ENE 680mi, 1094km
Updated: Fri, 05-Mar-2021 4:55am AKST
Clear
Clear
 Wind from calm
Wind: Calm
Temperature: -26°F , -32°C
Dew Point: -31°F , -35°C
Humidity: 75%
Barometer: 29.49 inHg , 998.6 hPa
Clouds: Clear
Visibility: 10 miles , 16 km
2021/03/05 13:55 PAAD 051355Z AUTO 00000KT 10SM CLR M32/M35 A2949 RMK AO2 T13201350


kenaipeople.com website

Dans Automotive

Lower Peninsula Power Sports

Freddies RoadHouse

Alaska Weather Net